Bareilly — A8KG7 — position and weather

sailwx.info

Track history (hours):
 
Tides and Currents Weather Stations Pressure Air Temp Water Temp Dewpoint Dewpoint Depression Visibility Wind Speed Wind Dir Waves Ship Positions

Bareilly

Last reported at 2016-Apr-23 21:32 UTC. Time now 2016-May-04 04:14 UTC.
Position N 02°02' E 102°11'.
Warning: this ship's position is 10 days out of date.

Length 243 m; draft 8.2 m.

Type: Tanker. MMSI: 636013054.

Date/timePositionNaut miles runAvg speedWind from/ knotsBaromVisibWave heightAir tempDewpointWater temp
2016-Apr-23 21:32N 02°02' E 102°11'1515.2
2016-Apr-23 20:33N 01°53' E 102°24'1615.7
2016-Apr-23 19:31N 01°45' E 102°38'1515.4
2016-Apr-23 18:33N 01°39' E 102°51'4713.7
2016-Apr-23 15:06N 01°13' E 103°31'813.8
2016-Apr-23 14:33N 01°11' E 103°38'1313.4
2016-Apr-23 13:33N 01°12' E 103°52'1514.9
2016-Apr-23 12:33N 01°16' E 104°06'  
2016-Apr-16 15:04N 01°16' E 104°09'712.6
2016-Apr-16 14:32N 01°15' E 104°03'7 6.7
2016-Apr-16 13:33N 01°16' E 103°56'1 1.1
2016-Apr-16 12:31N 01°15' E 103°55'0 0.0
2016-Apr-16 11:10N 01°15' E 103°55'0 0.1
2016-Apr-16 09:28N 01°15' E 103°55'0 0.2
2016-Apr-16 08:25N 01°15' E 103°55'0 0.1
2016-Apr-16 07:28N 01°15' E 103°55'0 0.0
2016-Apr-16 06:28N 01°15' E 103°55'0 0.0
2016-Apr-16 05:31N 01°15' E 103°55'0 0.1
2016-Apr-16 04:28N 01°15' E 103°55'0 0.0
2016-Apr-16 03:10N 01°15' E 103°55'0 0.0
2016-Apr-16 02:31N 01°15' E 103°55'0 0.0
2016-Apr-16 01:28N 01°15' E 103°55'0 0.0
2016-Apr-16 00:31N 01°15' E 103°55'1 0.9
2016-Apr-15 23:33N 01°15' E 103°56'6 5.7
2016-Apr-15 22:34N 01°11' E 103°52'1413.9
2016-Apr-15 21:34N 01°03' E 103°41'1110.4
2016-Apr-15 20:29N 01°09' E 103°32'0 0.5
2016-Apr-15 19:34N 01°10' E 103°32'1 1.3
2016-Apr-15 18:33N 01°09' E 103°33'1 0.9
2016-Apr-15 17:09N 01°08' E 103°34'0 0.0
2016-Apr-15 16:33N 01°08' E 103°34'0 0.0
2016-Apr-15 14:33N 01°08' E 103°34'0 0.1
2016-Apr-15 13:18N 01°08' E 103°34'0 0.1
2016-Apr-15 10:24N 01°08' E 103°34'0 0.1
2016-Apr-15 09:24N 01°08' E 103°34'0 0.0
2016-Apr-15 00:09N 01°08' E 103°34'0 0.1
2016-Apr-14 21:06N 01°08' E 103°34'0 0.0
2016-Apr-14 20:33N 01°08' E 103°34'0 0.0
2016-Apr-14 19:33N 01°08' E 103°34'0 0.1
2016-Apr-14 18:33N 01°08' E 103°34'0 0.0
2016-Apr-14 16:30N 01°08' E 103°34'0 0.0
2016-Apr-14 15:33N 01°08' E 103°34'0 0.0
2016-Apr-14 14:21N 01°08' E 103°34'0 0.1
2016-Apr-14 09:21N 01°08' E 103°34'0 0.2
2016-Apr-14 08:33N 01°08' E 103°34'1 0.9
2016-Apr-14 07:33N 01°08' E 103°35'3 2.7
2016-Apr-14 06:33N 01°11' E 103°36'1 0.9
2016-Apr-14 05:33N 01°11' E 103°35'2 1.7
2016-Apr-14 04:33N 01°11' E 103°37'9 8.9
2016-Apr-14 03:33N 01°09' E 103°46'1111.2
2016-Apr-14 02:33N 01°14' E 103°56'1312.9
2016-Apr-14 01:33N 01°17' E 104°09'  
Track history (hours):
 
Tides and Currents Weather Stations Pressure Air Temp Water Temp Dewpoint Dewpoint Depression Visibility Wind Speed Wind Dir Waves Ship Positions

Bareilly

Last reported at 2016-Apr-23 21:32 UTC. Time now 2016-May-04 04:14 UTC.
Position N 02°02' E 102°11'.
Warning: this ship's position is 10 days out of date.

Length 243 m; draft 8.2 m.

Type: Tanker. MMSI: 636013054.

Date/timePositionNaut miles runAvg speedWind from/ knotsBaromVisibWave heightAir tempDewpointWater temp
2016-Apr-23 21:32N 02°02' E 102°11'1515.2
2016-Apr-23 20:33N 01°53' E 102°24'1615.7
2016-Apr-23 19:31N 01°45' E 102°38'1515.4
2016-Apr-23 18:33N 01°39' E 102°51'4713.7
2016-Apr-23 15:06N 01°13' E 103°31'813.8
2016-Apr-23 14:33N 01°11' E 103°38'1313.4
2016-Apr-23 13:33N 01°12' E 103°52'1514.9
2016-Apr-23 12:33N 01°16' E 104°06'  
2016-Apr-16 15:04N 01°16' E 104°09'712.6
2016-Apr-16 14:32N 01°15' E 104°03'7 6.7
2016-Apr-16 13:33N 01°16' E 103°56'1 1.1
2016-Apr-16 12:31N 01°15' E 103°55'0 0.0
2016-Apr-16 11:10N 01°15' E 103°55'0 0.1
2016-Apr-16 09:28N 01°15' E 103°55'0 0.2
2016-Apr-16 08:25N 01°15' E 103°55'0 0.1
2016-Apr-16 07:28N 01°15' E 103°55'0 0.0
2016-Apr-16 06:28N 01°15' E 103°55'0 0.0
2016-Apr-16 05:31N 01°15' E 103°55'0 0.1
2016-Apr-16 04:28N 01°15' E 103°55'0 0.0
2016-Apr-16 03:10N 01°15' E 103°55'0 0.0
2016-Apr-16 02:31N 01°15' E 103°55'0 0.0
2016-Apr-16 01:28N 01°15' E 103°55'0 0.0
2016-Apr-16 00:31N 01°15' E 103°55'1 0.9
2016-Apr-15 23:33N 01°15' E 103°56'6 5.7
2016-Apr-15 22:34N 01°11' E 103°52'1413.9
2016-Apr-15 21:34N 01°03' E 103°41'1110.4
2016-Apr-15 20:29N 01°09' E 103°32'0 0.5
2016-Apr-15 19:34N 01°10' E 103°32'1 1.3
2016-Apr-15 18:33N 01°09' E 103°33'1 0.9
2016-Apr-15 17:09N 01°08' E 103°34'0 0.0
2016-Apr-15 16:33N 01°08' E 103°34'0 0.0
2016-Apr-15 14:33N 01°08' E 103°34'0 0.1
2016-Apr-15 13:18N 01°08' E 103°34'0 0.1
2016-Apr-15 10:24N 01°08' E 103°34'0 0.1
2016-Apr-15 09:24N 01°08' E 103°34'0 0.0
2016-Apr-15 00:09N 01°08' E 103°34'0 0.1
2016-Apr-14 21:06N 01°08' E 103°34'0 0.0
2016-Apr-14 20:33N 01°08' E 103°34'0 0.0
2016-Apr-14 19:33N 01°08' E 103°34'0 0.1
2016-Apr-14 18:33N 01°08' E 103°34'0 0.0
2016-Apr-14 16:30N 01°08' E 103°34'0 0.0
2016-Apr-14 15:33N 01°08' E 103°34'0 0.0
2016-Apr-14 14:21N 01°08' E 103°34'0 0.1
2016-Apr-14 09:21N 01°08' E 103°34'0 0.2
2016-Apr-14 08:33N 01°08' E 103°34'1 0.9
2016-Apr-14 07:33N 01°08' E 103°35'3 2.7
2016-Apr-14 06:33N 01°11' E 103°36'1 0.9
2016-Apr-14 05:33N 01°11' E 103°35'2 1.7
2016-Apr-14 04:33N 01°11' E 103°37'9 8.9
2016-Apr-14 03:33N 01°09' E 103°46'1111.2
2016-Apr-14 02:33N 01°14' E 103°56'1312.9
2016-Apr-14 01:33N 01°17' E 104°09'  

Dump ship's entire track history